Empire, Georgia
Current Conditions -  °F | °C
As of 1:55 PM on Friday 31 Oct 2014 (Local Time) from KEZM Reporting Station
Clear Clear  
Wind Chill: 70°   Ceiling: Unl
Heat Index: 70°   Visibility: 10mi
Dew Point: 41°   Wind: 7mph
Humidity: 35%   Direction: 300°WNW
Pressure: 29.88"   Gusts: NA
Location:  32.4223°N, 83.3103°W
Report Text: KEZM 311755Z AUTO 30006KT 10SM CLR 21/05 A2988 RMK AO2 T02130052 10214 20060
Loading
Personal Weather Stations






























Interactive Weather Map
Tropical Storm Tracking
New forecast layout! Learn more

10-Day Weather Forecast

Advertisements
Track Severe Weather on mobile